createdAt,value
2023-04-10T00:00:27.980Z,6.00
2023-04-10T00:03:57.703Z,6.47
2023-04-10T00:07:10.909Z,6.78
2023-04-10T00:10:20.429Z,8.35
2023-04-10T00:13:27.128Z,8.20
2023-04-10T00:16:38.804Z,7.07
2023-04-10T00:19:47.911Z,7.40
2023-04-10T00:22:55.866Z,8.38
2023-04-10T00:26:06.927Z,8.68
2023-04-10T00:29:16.449Z,9.18
2023-04-10T00:32:25.208Z,7.78
2023-04-10T00:35:38.297Z,7.38
2023-04-10T00:38:46.910Z,7.50
2023-04-10T00:42:00.308Z,7.90
2023-04-10T00:45:07.282Z,7.15
2023-04-10T00:48:16.120Z,7.22
2023-04-10T00:51:23.316Z,8.95
2023-04-10T00:54:30.761Z,9.00
2023-04-10T00:57:42.093Z,7.40
2023-04-10T01:01:07.763Z,8.18
2023-04-10T01:04:17.435Z,9.25
2023-04-10T01:07:31.860Z,7.53
2023-04-10T01:10:43.317Z,7.00
2023-04-10T01:13:59.624Z,7.43
2023-04-10T01:17:08.765Z,6.28
2023-04-10T01:20:25.595Z,5.57
2023-04-10T01:23:51.934Z,6.75
2023-04-10T01:27:09.220Z,7.85
2023-04-10T01:30:23.078Z,7.22
2023-04-10T01:33:35.120Z,6.70
2023-04-10T01:36:45.814Z,6.78
2023-04-10T01:39:56.685Z,6.82
2023-04-10T01:43:03.993Z,6.72
2023-04-10T01:46:13.802Z,5.78
2023-04-10T01:49:26.740Z,7.70
2023-04-10T01:52:35.080Z,7.03
2023-04-10T01:55:40.711Z,7.80
2023-04-10T01:58:47.338Z,8.35
2023-04-10T02:01:59.198Z,8.07
2023-04-10T02:05:05.223Z,9.10
2023-04-10T02:08:16.831Z,8.90
2023-04-10T02:11:28.447Z,9.47
2023-04-10T02:14:45.034Z,9.95
2023-04-10T02:18:02.201Z,8.80
2023-04-10T02:21:14.036Z,8.40
2023-04-10T02:24:22.638Z,8.13
2023-04-10T02:27:36.499Z,8.40
2023-04-10T02:30:44.644Z,8.60
2023-04-10T02:33:55.649Z,8.63
2023-04-10T02:37:02.922Z,9.48
2023-04-10T02:40:14.167Z,9.30
2023-04-10T02:43:21.665Z,7.82
2023-04-10T02:46:32.994Z,7.43
2023-04-10T02:49:42.044Z,8.33
2023-04-10T02:52:47.434Z,8.52
2023-04-10T02:55:56.270Z,7.45
2023-04-10T02:59:02.073Z,8.30
2023-04-10T03:02:10.733Z,8.20
2023-04-10T03:05:20.974Z,7.55
2023-04-10T03:08:30.621Z,7.88
2023-04-10T03:11:36.868Z,8.70
2023-04-10T03:14:48.555Z,8.55
2023-04-10T03:17:54.335Z,7.78
2023-04-10T03:21:06.693Z,8.80
2023-04-10T03:24:12.609Z,8.70
2023-04-10T03:27:22.476Z,8.13
2023-04-10T03:30:30.193Z,9.10
2023-04-10T03:33:37.798Z,7.75
2023-04-10T03:36:48.535Z,8.27
2023-04-10T03:39:54.456Z,8.13
2023-04-10T03:43:01.514Z,8.27
2023-04-10T03:46:07.616Z,8.20
2023-04-10T03:49:14.310Z,10.23
2023-04-10T03:52:32.880Z,9.00
2023-04-10T03:55:41.995Z,8.32
2023-04-10T03:58:47.692Z,9.15
2023-04-10T04:01:53.555Z,9.25
2023-04-10T04:05:01.594Z,9.60
2023-04-10T04:08:10.029Z,10.25
2023-04-10T04:11:15.766Z,9.30
2023-04-10T04:14:23.922Z,9.30
2023-04-10T04:17:32.098Z,10.32
2023-04-10T04:20:40.433Z,11.35
2023-04-10T04:23:49.161Z,8.88
2023-04-10T04:26:55.899Z,8.57
2023-04-10T04:30:05.578Z,9.00
2023-04-10T04:33:13.171Z,8.23
2023-04-10T04:36:20.853Z,8.57
2023-04-10T04:39:31.001Z,9.75
2023-04-10T04:42:43.146Z,10.75
2023-04-10T04:45:48.318Z,12.05
2023-04-10T04:48:56.691Z,12.02
2023-04-10T04:52:04.441Z,10.85
2023-04-10T04:55:14.389Z,11.23
2023-04-10T04:58:20.684Z,10.00
2023-04-10T05:01:28.534Z,10.32
2023-04-10T05:04:34.914Z,11.55
2023-04-10T05:07:43.583Z,11.63
2023-04-10T05:10:54.689Z,11.32
2023-04-10T05:14:03.194Z,10.93
2023-04-10T05:17:08.508Z,9.82
2023-04-10T05:20:15.071Z,10.15
2023-04-10T05:23:21.842Z,12.07
2023-04-10T05:26:31.083Z,11.13
2023-04-10T05:29:38.123Z,11.50
2023-04-10T05:32:43.944Z,11.05
2023-04-10T05:35:50.551Z,10.45
2023-04-10T05:38:57.664Z,10.60
2023-04-10T05:42:18.128Z,9.93
2023-04-10T05:45:24.130Z,10.70
2023-04-10T05:48:30.071Z,10.80
2023-04-10T05:51:39.221Z,11.43
2023-04-10T05:54:45.908Z,11.13
2023-04-10T05:58:00.649Z,11.45
2023-04-10T06:01:14.562Z,12.73
2023-04-10T06:04:21.799Z,11.30
2023-04-10T06:07:44.016Z,10.20
2023-04-10T06:10:52.440Z,9.23
2023-04-10T06:14:05.177Z,10.02
2023-04-10T06:17:12.483Z,9.27
2023-04-10T06:20:18.545Z,8.45
2023-04-10T06:23:30.399Z,8.43
2023-04-10T06:26:37.711Z,7.55
2023-04-10T06:29:47.104Z,9.07
2023-04-10T06:32:52.608Z,7.90
2023-04-10T06:36:18.486Z,6.97
2023-04-10T06:40:04.821Z,6.72
2023-04-10T06:43:14.445Z,6.38
2023-04-10T06:46:33.325Z,7.78
2023-04-10T06:49:42.374Z,5.87
2023-04-10T06:53:00.228Z,5.50
2023-04-10T06:56:08.522Z,5.30
2023-04-10T06:59:15.686Z,5.55
2023-04-10T07:02:27.479Z,5.70
2023-04-10T07:05:34.567Z,5.85
2023-04-10T07:08:45.086Z,5.30
2023-04-10T07:11:55.060Z,5.40
2023-04-10T07:15:03.694Z,5.10
2023-04-10T07:18:15.299Z,5.70
2023-04-10T07:21:34.388Z,4.85
2023-04-10T07:24:43.596Z,5.60
2023-04-10T07:27:58.488Z,4.85
2023-04-10T07:31:08.868Z,4.68
2023-04-10T07:34:20.505Z,4.90
2023-04-10T07:37:36.439Z,5.00
2023-04-10T07:40:43.256Z,5.18
2023-04-10T07:43:50.499Z,5.25
2023-04-10T07:46:59.224Z,5.53
2023-04-10T07:50:20.178Z,5.82
2023-04-10T07:53:34.507Z,5.13
2023-04-10T07:56:41.674Z,4.97
2023-04-10T07:59:48.233Z,4.35
2023-04-10T08:02:55.142Z,4.95
2023-04-10T08:06:04.666Z,4.55
2023-04-10T08:09:11.372Z,4.90
2023-04-10T08:12:21.243Z,5.10
2023-04-10T08:15:26.686Z,4.82
2023-04-10T08:18:32.911Z,4.15
2023-04-10T08:21:53.864Z,4.60
2023-04-10T08:25:00.949Z,3.97
2023-04-10T08:28:08.527Z,6.10
2023-04-10T08:31:13.983Z,3.65
2023-04-10T08:34:20.529Z,4.13
2023-04-10T08:37:39.375Z,4.10
2023-04-10T08:40:45.702Z,5.25
2023-04-10T08:43:54.732Z,4.18
2023-04-10T08:47:02.526Z,4.57
2023-04-10T08:50:11.185Z,4.75
2023-04-10T08:53:21.448Z,4.75
2023-04-10T08:56:27.852Z,4.32
2023-04-10T08:59:38.464Z,4.40
2023-04-10T09:02:48.054Z,5.45
2023-04-10T09:05:54.040Z,5.22
2023-04-10T09:09:14.847Z,5.28
2023-04-10T09:12:20.309Z,5.88
2023-04-10T09:15:27.565Z,6.20
2023-04-10T09:18:56.131Z,7.50
2023-04-10T09:22:05.557Z,7.95
2023-04-10T09:25:37.747Z,7.35
2023-04-10T09:28:58.533Z,8.77
2023-04-10T09:32:10.166Z,7.88
2023-04-10T09:35:19.258Z,9.60
2023-04-10T09:38:30.276Z,9.80
2023-04-10T09:41:38.765Z,8.73
2023-04-10T09:44:44.609Z,6.25
2023-04-10T09:48:04.476Z,6.07
2023-04-10T09:51:32.296Z,6.32
2023-04-10T09:54:48.646Z,6.65
2023-04-10T09:58:02.302Z,5.60
2023-04-10T10:01:09.932Z,5.50
2023-04-10T10:04:18.558Z,5.35
2023-04-10T10:07:29.251Z,5.53
2023-04-10T10:10:37.367Z,5.80
2023-04-10T10:13:50.607Z,6.10
2023-04-10T10:16:59.052Z,5.40
2023-04-10T10:20:06.429Z,5.53
2023-04-10T10:23:11.474Z,5.40
2023-04-10T10:26:17.695Z,4.63
2023-04-10T10:29:27.184Z,5.28
2023-04-10T10:32:33.302Z,6.15
2023-04-10T10:35:38.760Z,4.75
2023-04-10T10:38:51.834Z,5.00
2023-04-10T10:42:16.997Z,5.15
2023-04-10T10:45:27.148Z,4.75
2023-04-10T10:48:32.248Z,4.65
2023-04-10T10:51:46.872Z,4.45
2023-04-10T10:54:59.257Z,4.20
2023-04-10T10:58:07.029Z,4.63
2023-04-10T11:01:14.757Z,4.43
2023-04-10T11:04:37.836Z,5.20
2023-04-10T11:07:58.260Z,4.75
2023-04-10T11:11:06.098Z,4.72
2023-04-10T11:14:21.693Z,4.60
2023-04-10T11:17:42.203Z,4.78
2023-04-10T11:21:02.449Z,4.55
2023-04-10T11:24:13.842Z,4.47
2023-04-10T11:27:33.743Z,3.70
2023-04-10T11:30:45.849Z,3.80
2023-04-10T11:33:52.401Z,4.15
2023-04-10T11:36:59.410Z,4.15
2023-04-10T11:40:12.279Z,4.38
2023-04-10T11:43:22.513Z,4.35
2023-04-10T11:46:29.186Z,4.22
2023-04-10T11:49:37.346Z,4.30
2023-04-10T11:52:42.991Z,4.13
2023-04-10T11:55:54.520Z,4.43
2023-04-10T11:59:01.060Z,4.57
2023-04-10T12:02:09.517Z,4.68
2023-04-10T12:05:15.579Z,5.00
2023-04-10T12:08:22.082Z,4.55
2023-04-10T12:11:33.727Z,4.05
2023-04-10T12:14:40.339Z,4.00
2023-04-10T12:17:49.570Z,3.67
2023-04-10T12:20:58.840Z,3.60
2023-04-10T12:24:06.029Z,3.95
2023-04-10T12:27:21.980Z,3.15
2023-04-10T12:30:31.732Z,3.35
2023-04-10T12:33:37.675Z,3.80
2023-04-10T12:36:44.427Z,3.95
2023-04-10T12:39:52.118Z,3.85
2023-04-10T12:43:05.213Z,3.80
2023-04-10T12:46:11.950Z,4.57
2023-04-10T12:49:18.733Z,4.05
2023-04-10T12:52:26.362Z,3.90
2023-04-10T12:55:36.140Z,3.95
2023-04-10T12:58:50.778Z,3.90
2023-04-10T13:02:00.079Z,4.32
2023-04-10T13:05:09.002Z,3.88
2023-04-10T13:08:14.536Z,3.80
2023-04-10T13:11:21.804Z,4.15
2023-04-10T13:14:32.179Z,4.15
2023-04-10T13:17:41.260Z,3.67
2023-04-10T13:20:48.581Z,4.60
2023-04-10T13:23:59.263Z,4.78
2023-04-10T13:27:04.893Z,4.15
2023-04-10T13:30:14.633Z,3.72
2023-04-10T13:33:20.058Z,3.88
2023-04-10T13:36:26.507Z,3.17
2023-04-10T13:39:32.737Z,3.70
2023-04-10T13:42:41.234Z,3.78
2023-04-10T13:45:50.791Z,3.95
2023-04-10T13:49:02.678Z,3.53
2023-04-10T13:52:08.220Z,3.10
2023-04-10T13:55:15.059Z,3.20
2023-04-10T13:58:20.751Z,3.28
2023-04-10T14:01:32.244Z,3.22
2023-04-10T14:04:37.458Z,3.35
2023-04-10T14:07:44.538Z,3.83
2023-04-10T14:10:54.340Z,3.80
2023-04-10T14:14:00.447Z,3.15
2023-04-10T14:17:14.514Z,3.25
2023-04-10T14:20:20.124Z,4.00
2023-04-10T14:23:25.387Z,3.05
2023-04-10T14:26:45.521Z,3.35
2023-04-10T14:29:54.898Z,4.93
2023-04-10T14:33:04.262Z,3.88
2023-04-10T14:36:09.848Z,3.58
2023-04-10T14:39:17.602Z,3.28
2023-04-10T14:42:24.720Z,3.80
2023-04-10T14:45:30.581Z,3.90
2023-04-10T14:48:40.833Z,3.15
2023-04-10T14:51:50.512Z,3.70
2023-04-10T14:54:55.811Z,3.47
2023-04-10T14:58:03.490Z,3.28
2023-04-10T15:01:12.040Z,2.95
2023-04-10T15:04:23.288Z,3.53
2023-04-10T15:07:34.203Z,3.03
2023-04-10T15:10:39.968Z,3.03
2023-04-10T15:13:45.316Z,3.10
2023-04-10T15:16:53.522Z,5.40
2023-04-10T15:20:05.639Z,3.67
2023-04-10T15:26:17.320Z,3.80
2023-04-10T15:29:22.993Z,3.92
2023-04-10T15:32:29.398Z,3.80
2023-04-10T15:35:37.708Z,2.97
2023-04-10T15:38:42.931Z,4.00
2023-04-10T15:41:50.359Z,4.03
2023-04-10T15:44:57.595Z,4.25
2023-04-10T15:48:07.946Z,4.38
2023-04-10T15:51:16.121Z,3.58
2023-04-10T15:54:24.714Z,3.50
2023-04-10T15:57:31.750Z,3.30
2023-04-10T16:00:39.114Z,3.50
2023-04-10T16:03:46.050Z,3.20
2023-04-10T16:06:59.605Z,4.68
2023-04-10T16:10:05.565Z,3.13
2023-04-10T16:13:19.506Z,3.72
2023-04-10T16:16:30.748Z,3.15
2023-04-10T16:19:39.716Z,3.95
2023-04-10T16:22:51.062Z,3.88
2023-04-10T16:25:59.181Z,3.80
2023-04-10T16:29:13.637Z,3.92
2023-04-10T16:32:19.579Z,4.07
2023-04-10T16:35:24.799Z,4.45
2023-04-10T16:38:35.071Z,5.05
2023-04-10T16:41:44.346Z,5.28
2023-04-10T16:44:51.399Z,4.97
2023-04-10T16:51:18.825Z,4.38
2023-04-10T16:54:30.893Z,4.22
2023-04-10T16:57:40.670Z,4.22
2023-04-10T17:00:45.954Z,4.80
2023-04-10T17:03:59.882Z,6.40
2023-04-10T17:07:09.306Z,6.90
2023-04-10T17:10:18.514Z,6.30
2023-04-10T17:13:24.737Z,7.07
2023-04-10T17:16:30.768Z,8.05
2023-04-10T17:19:37.490Z,11.38
2023-04-10T17:22:43.431Z,42.00
2023-04-10T17:26:00.504Z,17.45
2023-04-10T17:29:06.637Z,17.63
2023-04-10T17:32:12.914Z,16.27
2023-04-10T17:35:19.235Z,18.65
2023-04-10T17:38:24.854Z,8.25
2023-04-10T17:41:33.563Z,7.65
2023-04-10T17:44:38.979Z,6.38
2023-04-10T17:47:46.169Z,6.40
2023-04-10T17:50:53.730Z,6.70
2023-04-10T17:54:01.817Z,10.80
2023-04-10T17:57:11.668Z,23.48
2023-04-10T18:00:20.611Z,14.15
2023-04-10T18:03:26.549Z,18.70
2023-04-10T18:06:32.680Z,13.43
2023-04-10T18:09:38.423Z,11.77
2023-04-10T18:12:48.052Z,14.15
2023-04-10T18:15:53.502Z,12.73
2023-04-10T18:18:59.742Z,12.82
2023-04-10T18:22:05.605Z,8.95
2023-04-10T18:25:12.374Z,9.82
2023-04-10T18:28:23.747Z,9.63
2023-04-10T18:34:50.156Z,6.32
2023-04-10T18:38:00.130Z,4.70
2023-04-10T18:41:05.563Z,5.00
2023-04-10T18:44:17.123Z,4.68
2023-04-10T18:47:22.878Z,4.70
2023-04-10T18:50:31.388Z,5.32
2023-04-10T18:53:42.135Z,5.00
2023-04-10T18:56:48.463Z,4.75
2023-04-10T18:59:58.187Z,6.00
2023-04-10T19:03:04.514Z,5.50
2023-04-10T19:06:14.055Z,5.68
2023-04-10T19:09:21.440Z,5.78
2023-04-10T19:12:27.223Z,5.85
2023-04-10T19:15:38.012Z,5.60
2023-04-10T19:18:43.909Z,5.68
2023-04-10T19:21:52.997Z,6.18
2023-04-10T19:24:58.546Z,6.18
2023-04-10T19:28:04.158Z,6.32
2023-04-10T19:31:13.465Z,5.85
2023-04-10T19:34:19.399Z,5.90
2023-04-10T19:37:24.802Z,5.50
2023-04-10T19:40:30.323Z,5.85
2023-04-10T19:43:36.022Z,5.70
2023-04-10T19:46:45.003Z,5.90
2023-04-10T19:49:50.859Z,6.18
2023-04-10T19:52:56.878Z,5.63
2023-04-10T19:56:02.048Z,5.28
2023-04-10T19:59:08.968Z,5.70
2023-04-10T20:02:18.846Z,5.80
2023-04-10T20:05:25.128Z,5.70
2023-04-10T20:08:30.463Z,6.38
2023-04-10T20:11:36.543Z,6.45
2023-04-10T20:14:43.602Z,5.65
2023-04-10T20:17:52.114Z,5.05
2023-04-10T20:20:58.799Z,5.93
2023-04-10T20:24:05.754Z,5.97
2023-04-10T20:27:10.742Z,6.00
2023-04-10T20:30:16.345Z,6.20
2023-04-10T20:33:24.668Z,6.18
2023-04-10T20:36:30.403Z,5.78
2023-04-10T20:39:37.921Z,6.47
2023-04-10T20:42:45.957Z,5.70
2023-04-10T20:45:52.871Z,6.68
2023-04-10T20:49:03.766Z,5.43
2023-04-10T20:52:13.017Z,6.05
2023-04-10T20:55:20.943Z,6.63
2023-04-10T20:58:26.843Z,6.07
2023-04-10T21:01:32.799Z,6.30
2023-04-10T21:04:41.242Z,7.15
2023-04-10T21:07:46.708Z,6.22
2023-04-10T21:10:51.726Z,6.68
2023-04-10T21:13:58.729Z,6.00
2023-04-10T21:17:03.779Z,6.80
2023-04-10T21:20:13.303Z,6.97
2023-04-10T21:23:18.314Z,6.47
2023-04-10T21:26:24.110Z,7.35
2023-04-10T21:29:29.463Z,7.30
2023-04-10T21:32:38.884Z,6.97
2023-04-10T21:35:48.145Z,6.70
2023-04-10T21:38:53.886Z,7.28
2023-04-10T21:42:01.736Z,7.43
2023-04-10T21:45:07.676Z,7.38
2023-04-10T21:48:12.775Z,6.82
2023-04-10T21:51:21.649Z,7.18
2023-04-10T21:54:26.646Z,7.63
2023-04-10T21:57:32.013Z,7.15
2023-04-10T22:00:37.159Z,7.43
2023-04-10T22:03:44.278Z,7.70
2023-04-10T22:06:52.085Z,7.38
2023-04-10T22:09:57.878Z,7.18
2023-04-10T22:13:03.314Z,7.05
2023-04-10T22:16:08.938Z,7.43
2023-04-10T22:19:13.939Z,6.82
2023-04-10T22:22:22.414Z,6.90
2023-04-10T22:25:30.275Z,7.38
2023-04-10T22:28:36.248Z,7.07
2023-04-10T22:31:42.628Z,6.30
2023-04-10T22:34:48.206Z,7.10
2023-04-10T22:37:57.594Z,6.90
2023-04-10T22:41:07.127Z,6.78
2023-04-10T22:44:12.350Z,6.03
2023-04-10T22:47:18.177Z,6.93
2023-04-10T22:50:23.776Z,6.57
2023-04-10T22:53:33.421Z,5.95
2023-04-10T22:56:38.538Z,6.68
2023-04-10T22:59:44.286Z,7.47
2023-04-10T23:02:49.437Z,7.40
2023-04-10T23:05:56.813Z,8.10
2023-04-10T23:09:06.543Z,7.75
2023-04-10T23:12:11.942Z,8.73
2023-04-10T23:15:19.885Z,8.55
2023-04-10T23:18:25.938Z,9.68
2023-04-10T23:21:31.871Z,9.07
2023-04-10T23:24:42.834Z,9.05
2023-04-10T23:27:48.494Z,10.50
2023-04-10T23:30:54.472Z,9.13
2023-04-10T23:33:59.834Z,10.25
2023-04-10T23:37:06.119Z,11.02
2023-04-10T23:40:17.784Z,9.60
2023-04-10T23:43:23.211Z,10.93
2023-04-10T23:46:28.297Z,11.40
2023-04-10T23:49:35.078Z,9.88
2023-04-10T23:52:40.487Z,9.90
2023-04-10T23:55:49.287Z,10.15
2023-04-10T23:58:55.064Z,10.45
